createdAt,value
2023-05-05T00:02:43.050Z,52.62
2023-05-05T00:12:44.538Z,52.92
2023-05-05T00:22:45.889Z,53.72
2023-05-05T00:32:48.640Z,54.22
2023-05-05T00:42:53.502Z,54.26
2023-05-05T00:53:04.757Z,54.69
2023-05-05T01:03:06.259Z,53.83
2023-05-05T01:13:13.850Z,55.59
2023-05-05T01:23:33.430Z,55.12
2023-05-05T01:33:41.868Z,55.70
2023-05-05T01:43:46.006Z,56.01
2023-05-05T01:53:48.115Z,57.07
2023-05-05T02:03:51.248Z,56.89
2023-05-05T02:13:54.598Z,61.28
2023-05-05T02:23:56.722Z,61.77
2023-05-05T02:34:01.796Z,61.47
2023-05-05T02:44:05.075Z,63.24
2023-05-05T02:54:06.866Z,63.55
2023-05-05T03:04:15.515Z,64.88
2023-05-05T03:14:21.072Z,64.93
2023-05-05T03:24:22.576Z,64.18
2023-05-05T03:34:23.920Z,63.94
2023-05-05T03:44:25.430Z,66.79
2023-05-05T03:54:26.815Z,64.15
2023-05-05T04:04:28.374Z,68.99
2023-05-05T04:14:29.757Z,67.89
2023-05-05T04:24:31.281Z,70.97
2023-05-05T04:34:32.853Z,70.83
2023-05-05T04:44:34.779Z,71.47
2023-05-05T04:54:37.024Z,67.97
2023-05-05T05:04:38.488Z,66.42
2023-05-05T05:14:40.168Z,69.77
2023-05-05T05:24:42.130Z,68.41
2023-05-05T05:34:43.517Z,68.96
2023-05-05T05:44:45.014Z,68.81
2023-05-05T05:54:46.490Z,68.99
2023-05-05T06:04:48.263Z,67.92
2023-05-05T06:14:49.633Z,67.73
2023-05-05T06:24:51.154Z,67.51
2023-05-05T06:34:52.582Z,67.95
2023-05-05T06:44:53.953Z,67.29
2023-05-05T06:54:55.403Z,66.10
2023-05-05T07:04:57.952Z,67.22
2023-05-05T07:14:59.503Z,65.42
2023-05-05T07:25:02.390Z,66.92
2023-05-05T07:35:03.934Z,66.15
2023-05-05T07:45:06.747Z,66.29
2023-05-05T07:55:08.220Z,65.25
2023-05-05T08:05:10.081Z,65.56
2023-05-05T08:15:11.873Z,64.69
2023-05-05T08:25:14.085Z,62.90
2023-05-05T08:35:15.647Z,62.41
2023-05-05T08:45:17.232Z,59.91
2023-05-05T08:55:26.627Z,60.90
2023-05-05T09:05:28.491Z,59.39
2023-05-05T09:15:30.095Z,60.87
2023-05-05T09:25:31.745Z,56.27
2023-05-05T09:35:55.887Z,57.58
2023-05-05T09:46:07.898Z,59.39
2023-05-05T09:56:10.408Z,58.90
2023-05-05T10:06:12.026Z,57.90
2023-05-05T10:16:13.791Z,58.32
2023-05-05T10:26:18.489Z,56.95
2023-05-05T10:36:20.292Z,55.18
2023-05-05T10:46:21.927Z,56.50
2023-05-05T10:56:32.433Z,56.12
2023-05-05T11:06:33.900Z,55.64
2023-05-05T11:16:47.685Z,54.90
2023-05-05T11:26:51.616Z,55.89
2023-05-05T11:36:57.547Z,56.50
2023-05-05T11:47:02.711Z,55.12
2023-05-05T11:57:08.600Z,53.88
2023-05-05T12:07:15.846Z,55.14
2023-05-05T12:17:21.287Z,56.24
2023-05-05T12:27:23.350Z,58.96
2023-05-05T12:37:26.146Z,61.38
2023-05-05T12:47:32.651Z,62.15
2023-05-05T12:57:34.075Z,57.69
2023-05-05T13:07:35.472Z,56.30
2023-05-05T13:17:37.136Z,56.82
2023-05-05T13:27:38.619Z,57.99
2023-05-05T13:37:39.979Z,57.60
2023-05-05T13:47:42.053Z,57.80
2023-05-05T13:57:43.582Z,58.32
2023-05-05T14:07:46.215Z,63.28
2023-05-05T14:17:47.635Z,63.48
2023-05-05T14:27:49.241Z,64.25
2023-05-05T14:37:50.920Z,67.59
2023-05-05T14:47:52.326Z,68.34
2023-05-05T14:57:54.748Z,71.86
2023-05-05T15:07:56.320Z,78.75
2023-05-05T15:17:57.697Z,86.56
2023-05-05T15:28:00.862Z,88.56
2023-05-05T15:38:02.690Z,87.18
2023-05-05T15:48:04.372Z,87.02
2023-05-05T15:58:05.899Z,82.75
2023-05-05T16:08:09.870Z,84.28
2023-05-05T16:18:11.312Z,86.73
2023-05-05T16:28:12.678Z,84.32
2023-05-05T16:38:14.169Z,89.11
2023-05-05T16:48:17.445Z,80.50
2023-05-05T16:58:20.126Z,80.56
2023-05-05T17:08:21.693Z,78.64
2023-05-05T17:18:25.726Z,83.30
2023-05-05T17:28:27.545Z,86.11
2023-05-05T17:38:28.975Z,85.13
2023-05-05T17:48:30.630Z,84.88
2023-05-05T17:58:32.173Z,84.95
2023-05-05T18:08:33.524Z,88.38
2023-05-05T18:18:35.011Z,88.70
2023-05-05T18:28:37.211Z,88.04
2023-05-05T18:38:38.710Z,88.70
2023-05-05T18:48:40.187Z,91.35
2023-05-05T18:58:41.721Z,91.22
2023-05-05T19:08:45.144Z,91.00
2023-05-05T19:18:46.608Z,91.51
2023-05-05T19:28:48.039Z,93.27
2023-05-05T19:38:49.472Z,92.85
2023-05-05T19:48:50.989Z,94.50
2023-05-05T19:58:53.106Z,94.58
2023-05-05T20:08:55.467Z,91.84
2023-05-05T20:18:56.855Z,93.65
2023-05-05T20:28:58.204Z,93.70
2023-05-05T20:38:59.605Z,94.79
2023-05-05T20:49:00.944Z,98.40
2023-05-05T20:59:03.938Z,96.15
2023-05-05T21:09:05.547Z,91.23
2023-05-05T21:19:06.920Z,98.07
2023-05-05T21:29:08.345Z,94.60
2023-05-05T21:39:09.923Z,96.96
2023-05-05T21:49:18.027Z,97.99
2023-05-05T21:59:19.594Z,92.13
2023-05-05T22:09:21.078Z,100.00
2023-05-05T22:19:22.554Z,100.00
2023-05-05T22:29:25.012Z,100.00
2023-05-05T22:39:26.946Z,100.00
2023-05-05T22:49:28.699Z,98.02
2023-05-05T22:59:30.208Z,97.28
2023-05-05T23:09:31.780Z,98.76
2023-05-05T23:19:33.293Z,98.89
2023-05-05T23:29:34.826Z,100.00
2023-05-05T23:39:36.380Z,100.00
2023-05-05T23:49:37.865Z,98.93
2023-05-05T23:59:39.431Z,99.59
